createdAt,value
2022-10-26T00:00:05.035Z,19.20
2022-10-26T00:02:31.490Z,19.75
2022-10-26T00:04:57.934Z,17.00
2022-10-26T00:07:24.378Z,13.40
2022-10-26T00:09:50.778Z,14.40
2022-10-26T00:12:17.169Z,13.25
2022-10-26T00:14:43.606Z,14.75
2022-10-26T00:17:10.009Z,15.00
2022-10-26T00:19:38.161Z,14.40
2022-10-26T00:22:04.768Z,18.25
2022-10-26T00:24:31.199Z,13.60
2022-10-26T00:26:57.599Z,16.00
2022-10-26T00:29:24.020Z,13.00
2022-10-26T00:31:50.550Z,15.67
2022-10-26T00:34:16.955Z,13.60
2022-10-26T00:36:43.360Z,14.00
2022-10-26T00:39:12.504Z,16.00
2022-10-26T00:41:38.907Z,17.00
2022-10-26T00:44:24.238Z,16.75
2022-10-26T00:46:50.700Z,13.00
2022-10-26T00:51:53.370Z,13.50
2022-10-26T00:54:20.879Z,12.80
2022-10-26T00:56:48.542Z,13.50
2022-10-26T00:59:16.269Z,17.25
2022-10-26T01:01:44.263Z,11.80
2022-10-26T01:04:12.175Z,16.00
2022-10-26T01:06:39.263Z,15.80
2022-10-26T01:09:06.160Z,15.50
2022-10-26T01:11:32.624Z,18.20
2022-10-26T01:14:00.586Z,11.50
2022-10-26T01:16:33.069Z,15.00
2022-10-26T01:19:11.898Z,11.40
2022-10-26T01:22:04.670Z,11.00
2022-10-26T01:24:42.662Z,13.80
2022-10-26T01:27:29.302Z,11.00
2022-10-26T01:30:14.095Z,13.40
2022-10-26T01:32:51.532Z,13.25
2022-10-26T01:35:21.646Z,17.00
2022-10-26T01:37:57.301Z,11.25
2022-10-26T01:40:32.636Z,13.80
2022-10-26T01:43:02.871Z,14.40
2022-10-26T01:45:30.442Z,14.50
2022-10-26T01:47:57.147Z,12.20
2022-10-26T01:50:23.598Z,14.00
2022-10-26T01:52:50.856Z,16.40
2022-10-26T01:55:35.734Z,13.00
2022-10-26T01:58:09.832Z,13.80
2022-10-26T02:00:37.774Z,14.50
2022-10-26T02:03:15.478Z,14.00
2022-10-26T02:05:48.390Z,13.00
2022-10-26T02:08:33.248Z,13.00
2022-10-26T02:11:02.864Z,15.25
2022-10-26T02:13:48.330Z,15.00
2022-10-26T02:16:17.591Z,14.00
2022-10-26T02:18:53.210Z,19.00
2022-10-26T02:21:22.855Z,13.00
2022-10-26T02:23:51.247Z,14.40
2022-10-26T02:26:20.246Z,16.00
2022-10-26T02:28:49.841Z,13.60
2022-10-26T02:31:16.943Z,11.20
2022-10-26T02:33:46.711Z,11.60
2022-10-26T02:36:15.660Z,12.00
2022-10-26T02:38:42.798Z,11.20
2022-10-26T02:41:11.114Z,14.75
2022-10-26T02:43:41.889Z,12.75
2022-10-26T02:46:13.561Z,14.40
2022-10-26T02:48:40.001Z,14.00
2022-10-26T02:51:09.478Z,12.25
2022-10-26T02:53:38.817Z,14.00
2022-10-26T02:56:10.842Z,13.25
2022-10-26T02:58:41.252Z,11.00
2022-10-26T03:01:08.303Z,12.25
2022-10-26T03:03:34.883Z,18.00
2022-10-26T03:06:01.364Z,10.00
2022-10-26T03:10:59.564Z,12.00
2022-10-26T03:13:25.965Z,12.00
2022-10-26T03:15:55.103Z,12.60
2022-10-26T03:18:21.524Z,12.40
2022-10-26T03:20:47.986Z,12.00
2022-10-26T03:23:14.484Z,15.75
2022-10-26T03:25:40.883Z,12.40
2022-10-26T03:28:07.507Z,11.40
2022-10-26T03:30:33.987Z,15.00
2022-10-26T03:33:00.460Z,9.60
2022-10-26T03:35:26.879Z,14.40
2022-10-26T03:37:53.353Z,13.50
2022-10-26T03:40:19.989Z,10.40
2022-10-26T03:42:46.680Z,12.75
2022-10-26T03:45:13.401Z,10.25
2022-10-26T03:47:47.005Z,11.50
2022-10-26T03:50:14.381Z,15.00
2022-10-26T03:52:41.282Z,17.00
2022-10-26T03:55:08.132Z,12.00
2022-10-26T03:57:34.531Z,13.00
2022-10-26T04:00:01.232Z,11.60
2022-10-26T04:02:27.657Z,15.40
2022-10-26T04:04:54.088Z,14.40
2022-10-26T04:07:20.522Z,8.40
2022-10-26T04:09:46.936Z,11.00
2022-10-26T04:12:13.348Z,9.50
2022-10-26T04:14:39.751Z,10.60
2022-10-26T04:17:06.168Z,13.00
2022-10-26T04:19:32.605Z,14.00
2022-10-26T04:21:59.043Z,11.00
2022-10-26T04:24:25.469Z,19.80
2022-10-26T04:26:51.874Z,10.25
2022-10-26T04:29:18.327Z,10.00
2022-10-26T04:31:44.775Z,9.20
2022-10-26T04:34:12.700Z,7.60
2022-10-26T04:36:39.521Z,14.00
2022-10-26T04:39:05.954Z,11.00
2022-10-26T04:41:32.354Z,12.00
2022-10-26T04:43:58.787Z,10.00
2022-10-26T04:46:25.221Z,12.60
2022-10-26T04:48:51.628Z,11.60
2022-10-26T04:51:18.100Z,11.20
2022-10-26T04:53:44.494Z,10.50
2022-10-26T04:56:10.910Z,15.20
2022-10-26T04:58:37.347Z,13.20
2022-10-26T05:01:03.962Z,11.00
2022-10-26T05:03:31.656Z,12.00
2022-10-26T05:05:59.369Z,11.25
2022-10-26T05:08:27.355Z,13.00
2022-10-26T05:10:55.079Z,12.33
2022-10-26T05:13:21.546Z,11.50
2022-10-26T05:15:48.013Z,10.50
2022-10-26T05:18:14.402Z,13.60
2022-10-26T05:20:40.890Z,10.00
2022-10-26T05:23:10.197Z,11.75
2022-10-26T05:25:37.312Z,18.20
2022-10-26T05:28:04.955Z,19.50
2022-10-26T05:30:31.460Z,14.20
2022-10-26T05:32:58.639Z,11.20
2022-10-26T05:35:25.941Z,10.60
2022-10-26T05:37:52.890Z,11.00
2022-10-26T05:40:20.205Z,11.60
2022-10-26T05:42:46.991Z,16.25
2022-10-26T05:45:13.972Z,10.80
2022-10-26T05:47:41.366Z,15.75
2022-10-26T05:50:08.752Z,13.00
2022-10-26T05:52:41.934Z,12.40
2022-10-26T05:55:09.268Z,10.00
2022-10-26T05:57:35.871Z,11.80
2022-10-26T06:00:02.758Z,10.80
2022-10-26T06:02:52.184Z,11.60
2022-10-26T06:05:23.980Z,11.25
2022-10-26T06:07:50.900Z,11.00
2022-10-26T06:10:19.010Z,14.00
2022-10-26T06:12:45.842Z,17.00
2022-10-26T06:15:18.615Z,14.40
2022-10-26T06:17:54.451Z,12.00
2022-10-26T06:20:23.652Z,13.50
2022-10-26T06:22:59.286Z,14.40
2022-10-26T06:25:33.782Z,11.00
2022-10-26T06:28:25.067Z,11.40
2022-10-26T06:30:51.897Z,11.50
2022-10-26T06:33:28.786Z,13.60
2022-10-26T06:35:58.995Z,14.50
2022-10-26T06:38:27.630Z,14.00
2022-10-26T06:40:56.148Z,11.50
2022-10-26T06:43:22.538Z,16.40
2022-10-26T06:45:51.379Z,11.00
2022-10-26T06:48:22.205Z,14.75
2022-10-26T06:50:52.674Z,14.00
2022-10-26T06:56:11.184Z,11.60
2022-10-26T06:58:38.929Z,10.40
2022-10-26T07:01:05.610Z,10.40
2022-10-26T07:03:32.044Z,12.80
2022-10-26T07:05:58.530Z,10.00
2022-10-26T07:08:24.987Z,12.40
2022-10-26T07:10:51.404Z,12.60
2022-10-26T07:13:17.878Z,11.25
2022-10-26T07:15:44.899Z,10.40
2022-10-26T07:18:11.334Z,10.75
2022-10-26T07:20:39.247Z,11.40
2022-10-26T07:23:07.140Z,9.50
2022-10-26T07:25:34.464Z,12.40
2022-10-26T07:28:01.254Z,14.00
2022-10-26T07:30:29.007Z,8.50
2022-10-26T07:32:59.408Z,11.00
2022-10-26T07:35:25.878Z,11.00
2022-10-26T07:37:55.684Z,10.20
2022-10-26T07:42:56.169Z,14.20
2022-10-26T07:45:22.679Z,11.25
2022-10-26T07:47:51.734Z,9.00
2022-10-26T07:50:18.193Z,10.80
2022-10-26T07:52:44.600Z,10.00
2022-10-26T07:55:11.581Z,12.00
2022-10-26T07:57:38.088Z,10.00
2022-10-26T08:00:05.662Z,12.00
2022-10-26T08:02:32.204Z,9.80
2022-10-26T08:04:58.639Z,9.00
2022-10-26T08:07:26.217Z,10.00
2022-10-26T08:09:52.994Z,11.40
2022-10-26T08:12:19.781Z,13.50
2022-10-26T08:14:46.226Z,12.75
2022-10-26T08:17:12.666Z,12.00
2022-10-26T08:19:39.065Z,11.00
2022-10-26T08:22:06.538Z,15.75
2022-10-26T08:24:33.140Z,11.50
2022-10-26T08:26:59.557Z,14.25
2022-10-26T08:29:25.999Z,14.00
2022-10-26T08:31:52.526Z,11.00
2022-10-26T08:34:18.937Z,13.50
2022-10-26T08:36:45.412Z,17.67
2022-10-26T08:39:11.848Z,12.00
2022-10-26T08:41:42.997Z,11.25
2022-10-26T08:44:12.187Z,13.75
2022-10-26T08:46:41.583Z,12.40
2022-10-26T08:49:25.895Z,12.25
2022-10-26T08:51:54.899Z,11.00
2022-10-26T08:54:32.724Z,11.50
2022-10-26T08:57:01.973Z,11.00
2022-10-26T08:59:28.364Z,11.00
2022-10-26T09:01:55.164Z,10.20
2022-10-26T09:04:26.007Z,11.00
2022-10-26T09:06:59.653Z,12.00
2022-10-26T09:09:35.826Z,13.40
2022-10-26T09:12:07.555Z,17.00
2022-10-26T09:14:33.980Z,13.00
2022-10-26T09:17:03.152Z,12.60
2022-10-26T09:19:49.864Z,11.00
2022-10-26T09:22:19.150Z,15.20
2022-10-26T09:25:04.063Z,13.00
2022-10-26T09:27:38.634Z,13.50
2022-10-26T09:30:12.947Z,15.75
2022-10-26T09:32:43.423Z,10.40
2022-10-26T09:35:15.571Z,12.80
2022-10-26T09:37:47.159Z,10.50
2022-10-26T09:40:23.108Z,16.00
2022-10-26T09:42:54.164Z,11.80
2022-10-26T09:45:28.886Z,13.00
2022-10-26T09:47:59.549Z,16.20
2022-10-26T09:50:29.368Z,12.00
2022-10-26T09:52:55.763Z,13.60
2022-10-26T09:55:22.988Z,13.50
2022-10-26T09:57:52.181Z,9.00
2022-10-26T10:00:20.844Z,12.00
2022-10-26T10:02:51.723Z,13.00
2022-10-26T10:05:49.734Z,13.40
2022-10-26T10:08:21.961Z,12.00
2022-10-26T10:11:00.313Z,13.00
2022-10-26T10:13:28.327Z,14.00
2022-10-26T10:15:57.482Z,15.00
2022-10-26T10:18:24.232Z,13.00
2022-10-26T10:20:58.421Z,12.00
2022-10-26T10:23:35.139Z,14.00
2022-10-26T10:26:03.455Z,12.00
2022-10-26T10:28:30.293Z,14.60
2022-10-26T10:30:59.581Z,13.00
2022-10-26T10:33:36.604Z,13.00
2022-10-26T10:36:04.520Z,14.00
2022-10-26T10:38:36.806Z,14.20
2022-10-26T10:41:04.303Z,15.40
2022-10-26T10:43:30.928Z,18.00
2022-10-26T10:45:59.723Z,16.00
2022-10-26T10:48:28.092Z,11.50
2022-10-26T10:50:57.312Z,13.50
2022-10-26T10:53:38.063Z,13.75
2022-10-26T10:56:30.955Z,13.50
2022-10-26T10:59:23.735Z,19.00
2022-10-26T11:01:56.252Z,14.00
2022-10-26T11:04:28.829Z,16.75
2022-10-26T11:06:59.461Z,10.50
2022-10-26T11:09:28.239Z,17.00
2022-10-26T11:11:58.183Z,14.00
2022-10-26T11:14:28.128Z,13.00
2022-10-26T11:17:13.093Z,13.50
2022-10-26T11:19:45.569Z,12.60
2022-10-26T11:22:15.335Z,13.00
2022-10-26T11:24:45.709Z,16.00
2022-10-26T11:27:15.675Z,13.60
2022-10-26T11:29:57.005Z,16.00
2022-10-26T11:32:30.291Z,12.75
2022-10-26T11:35:12.790Z,15.40
2022-10-26T11:40:16.213Z,15.00
2022-10-26T11:42:46.818Z,13.40
2022-10-26T11:45:33.666Z,12.00
2022-10-26T11:48:18.422Z,18.50
2022-10-26T11:50:46.999Z,13.60
2022-10-26T11:53:16.322Z,13.60
2022-10-26T11:55:46.358Z,13.00
2022-10-26T11:58:13.186Z,13.00
2022-10-26T12:01:02.842Z,14.00
2022-10-26T12:03:35.434Z,17.00
2022-10-26T12:06:01.860Z,12.75
2022-10-26T12:08:35.096Z,11.00
2022-10-26T12:11:14.195Z,12.50
2022-10-26T12:13:52.895Z,13.00
2022-10-26T12:16:37.999Z,13.00
2022-10-26T12:19:07.560Z,10.40
2022-10-26T12:21:34.411Z,13.00
2022-10-26T12:24:02.861Z,13.00
2022-10-26T12:26:29.223Z,13.00
2022-10-26T12:29:01.804Z,16.00
2022-10-26T12:31:42.659Z,14.00
2022-10-26T12:34:14.244Z,13.40
2022-10-26T12:36:51.021Z,17.00
2022-10-26T12:39:26.306Z,16.60
2022-10-26T12:42:09.641Z,14.40
2022-10-26T12:44:40.698Z,15.60
2022-10-26T12:47:08.284Z,17.50
2022-10-26T12:49:53.437Z,16.60
2022-10-26T12:52:20.815Z,17.40
2022-10-26T12:54:57.034Z,17.00
2022-10-26T12:57:28.595Z,16.00
2022-10-26T12:59:54.958Z,17.40
2022-10-26T13:02:40.124Z,16.00
2022-10-26T13:05:12.643Z,15.00
2022-10-26T13:07:40.103Z,16.80
2022-10-26T13:10:12.823Z,22.25
2022-10-26T13:14:37.044Z,18.00
2022-10-26T13:17:07.565Z,13.40
2022-10-26T13:19:44.998Z,15.75
2022-10-26T13:22:30.036Z,16.50
2022-10-26T13:25:01.544Z,14.80
2022-10-26T13:27:34.226Z,18.00
2022-10-26T13:30:03.640Z,19.67
2022-10-26T13:32:40.554Z,16.00
2022-10-26T13:35:11.994Z,18.75
2022-10-26T13:37:45.006Z,17.40
2022-10-26T13:40:29.739Z,15.50
2022-10-26T13:43:02.636Z,17.25
2022-10-26T13:45:31.113Z,17.00
2022-10-26T13:48:15.979Z,16.50
2022-10-26T13:50:53.629Z,16.00
2022-10-26T13:53:40.342Z,17.25
2022-10-26T13:56:13.890Z,19.60
2022-10-26T13:58:47.754Z,15.60
2022-10-26T14:01:16.254Z,15.60
2022-10-26T14:03:42.967Z,16.00
2022-10-26T14:06:17.329Z,18.00
2022-10-26T14:08:44.713Z,21.80
2022-10-26T14:11:12.866Z,15.50
2022-10-26T14:13:42.586Z,13.75
2022-10-26T14:16:11.791Z,16.00
2022-10-26T14:18:40.902Z,20.40
2022-10-26T14:21:12.805Z,17.50
2022-10-26T14:23:46.881Z,14.75
2022-10-26T14:26:30.095Z,15.00
2022-10-26T14:28:58.140Z,17.20
2022-10-26T14:31:27.029Z,16.00
2022-10-26T14:33:54.182Z,15.80
2022-10-26T14:36:22.925Z,20.80
2022-10-26T14:38:51.143Z,20.25
2022-10-26T14:41:18.101Z,19.50
2022-10-26T14:43:44.986Z,21.40
2022-10-26T14:46:14.600Z,21.75
2022-10-26T14:48:42.088Z,16.00
2022-10-26T14:51:11.763Z,17.20
2022-10-26T14:53:40.184Z,18.00
2022-10-26T14:56:18.207Z,15.50
2022-10-26T14:58:44.618Z,18.00
2022-10-26T15:01:31.840Z,18.00
2022-10-26T15:04:04.028Z,16.25
2022-10-26T15:06:34.276Z,19.00
2022-10-26T15:09:01.820Z,19.00
2022-10-26T15:11:29.096Z,25.40
2022-10-26T15:13:56.356Z,18.60
2022-10-26T15:16:23.999Z,22.40
2022-10-26T15:19:23.718Z,18.00
2022-10-26T15:21:51.318Z,21.00
2022-10-26T15:24:20.710Z,24.75
2022-10-26T15:26:47.490Z,19.00
2022-10-26T15:29:32.796Z,21.50
2022-10-26T15:32:03.438Z,17.60
2022-10-26T15:34:29.921Z,20.00
2022-10-26T15:36:56.535Z,19.25
2022-10-26T15:39:22.999Z,16.00
2022-10-26T15:41:49.485Z,16.50
2022-10-26T15:44:20.460Z,16.60
2022-10-26T15:46:46.950Z,20.80
2022-10-26T15:49:20.426Z,22.25
2022-10-26T15:51:48.131Z,21.50
2022-10-26T15:54:14.934Z,18.00
2022-10-26T15:56:43.846Z,18.25
2022-10-26T15:59:17.438Z,17.40
2022-10-26T16:01:44.068Z,20.00
2022-10-26T16:04:12.190Z,17.40
2022-10-26T16:06:40.107Z,16.50
2022-10-26T16:09:07.950Z,16.50
2022-10-26T16:11:34.372Z,22.00
2022-10-26T16:14:03.613Z,20.60
2022-10-26T16:16:30.780Z,24.50
2022-10-26T16:19:11.675Z,25.20
2022-10-26T16:21:41.859Z,17.25
2022-10-26T16:24:08.325Z,18.00
2022-10-26T16:26:34.722Z,18.50
2022-10-26T16:29:01.179Z,20.75
2022-10-26T16:31:27.590Z,20.40
2022-10-26T16:33:54.006Z,18.25
2022-10-26T16:36:20.420Z,15.00
2022-10-26T16:38:46.854Z,22.50
2022-10-26T16:41:14.588Z,18.60
2022-10-26T16:43:42.071Z,18.00
2022-10-26T16:46:12.798Z,18.40
2022-10-26T16:48:39.751Z,22.40
2022-10-26T16:51:10.555Z,17.80
2022-10-26T16:53:37.073Z,20.00
2022-10-26T16:56:04.580Z,24.00
2022-10-26T16:58:34.289Z,21.00
2022-10-26T17:01:03.727Z,20.00
2022-10-26T17:03:30.243Z,18.00
2022-10-26T17:06:00.739Z,21.00
2022-10-26T17:08:27.520Z,19.00
2022-10-26T17:11:02.322Z,19.00
2022-10-26T17:13:28.773Z,18.20
2022-10-26T17:15:55.282Z,25.00
2022-10-26T17:18:21.678Z,23.40
2022-10-26T17:20:51.501Z,16.40
2022-10-26T17:23:18.145Z,17.00
2022-10-26T17:25:44.897Z,21.00
2022-10-26T17:28:12.285Z,22.80
2022-10-26T17:30:39.272Z,17.00
2022-10-26T17:33:05.774Z,16.75
2022-10-26T17:35:32.923Z,19.00
2022-10-26T17:37:59.492Z,21.25
2022-10-26T17:40:26.073Z,17.50
2022-10-26T17:42:52.513Z,27.20
2022-10-26T17:45:18.912Z,15.60
2022-10-26T17:47:45.334Z,15.00
2022-10-26T17:50:11.832Z,16.75
2022-10-26T17:52:38.251Z,20.00
2022-10-26T17:55:05.112Z,17.00
2022-10-26T17:57:32.474Z,16.80
2022-10-26T17:59:58.885Z,20.00
2022-10-26T18:02:25.471Z,16.67
2022-10-26T18:04:52.017Z,19.60
2022-10-26T18:07:18.489Z,26.25
2022-10-26T18:09:44.915Z,27.00
2022-10-26T18:12:11.382Z,16.75
2022-10-26T18:14:37.826Z,16.00
2022-10-26T18:17:04.271Z,22.50
2022-10-26T18:19:30.770Z,16.75
2022-10-26T18:21:57.204Z,19.00
2022-10-26T18:24:23.678Z,21.50
2022-10-26T18:26:50.115Z,15.80
2022-10-26T18:29:16.588Z,20.80
2022-10-26T18:31:44.060Z,19.25
2022-10-26T18:34:10.919Z,20.40
2022-10-26T18:39:09.101Z,21.20
2022-10-26T18:41:35.637Z,21.00
2022-10-26T18:44:02.258Z,17.80
2022-10-26T18:46:30.281Z,22.25
2022-10-26T18:48:57.972Z,17.00
2022-10-26T18:51:26.023Z,21.00
2022-10-26T18:53:52.817Z,15.80
2022-10-26T18:56:20.703Z,17.00
2022-10-26T18:58:48.349Z,21.80
2022-10-26T19:01:16.233Z,19.20
2022-10-26T19:03:43.268Z,16.75
2022-10-26T19:06:16.886Z,14.00
2022-10-26T19:08:43.980Z,17.60
2022-10-26T19:11:11.853Z,17.50
2022-10-26T19:13:38.622Z,20.60
2022-10-26T19:16:12.551Z,23.00
2022-10-26T19:18:48.483Z,18.75
2022-10-26T19:21:18.036Z,19.00
2022-10-26T19:23:45.504Z,18.60
2022-10-26T19:26:13.396Z,18.00
2022-10-26T19:28:40.417Z,18.00
2022-10-26T19:31:07.956Z,22.20
2022-10-26T19:33:34.796Z,24.25
2022-10-26T19:36:05.002Z,20.00
2022-10-26T19:38:33.068Z,17.00
2022-10-26T19:41:04.311Z,16.75
2022-10-26T19:43:32.445Z,21.00
2022-10-26T19:46:04.986Z,20.40
2022-10-26T19:48:31.512Z,21.40
2022-10-26T19:50:58.706Z,19.50
2022-10-26T19:53:25.299Z,18.00
2022-10-26T19:55:57.461Z,20.40
2022-10-26T19:58:24.681Z,18.00
2022-10-26T20:03:25.263Z,17.00
2022-10-26T20:05:52.879Z,16.50
2022-10-26T20:08:19.987Z,17.40
2022-10-26T20:10:46.698Z,19.60
2022-10-26T20:13:14.169Z,18.20
2022-10-26T20:15:41.871Z,20.80
2022-10-26T20:18:09.021Z,23.00
2022-10-26T20:20:38.025Z,20.00
2022-10-26T20:23:05.511Z,19.00
2022-10-26T20:25:34.184Z,23.00
2022-10-26T20:28:01.038Z,15.25
2022-10-26T20:30:27.930Z,20.00
2022-10-26T20:32:56.407Z,17.50
2022-10-26T20:35:23.115Z,26.75
2022-10-26T20:37:50.103Z,17.60
2022-10-26T20:40:17.193Z,18.25
2022-10-26T20:42:43.873Z,24.50
2022-10-26T20:45:15.031Z,18.20
2022-10-26T20:47:41.640Z,17.40
2022-10-26T20:50:10.323Z,19.00
2022-10-26T20:52:49.247Z,21.00
2022-10-26T20:55:42.097Z,24.80
2022-10-26T20:58:18.509Z,19.00
2022-10-26T21:00:49.328Z,22.00
2022-10-26T21:03:15.889Z,20.00
2022-10-26T21:05:45.509Z,18.40
2022-10-26T21:08:12.089Z,18.20
2022-10-26T21:10:38.563Z,19.60
2022-10-26T21:13:05.136Z,24.50
2022-10-26T21:15:31.727Z,21.50
2022-10-26T21:17:59.500Z,20.60
2022-10-26T21:20:25.937Z,18.20
2022-10-26T21:22:52.989Z,20.00
2022-10-26T21:25:19.396Z,18.00
2022-10-26T21:27:45.797Z,19.60
2022-10-26T21:30:12.806Z,20.40
2022-10-26T21:32:39.235Z,21.00
2022-10-26T21:35:06.018Z,19.40
2022-10-26T21:37:32.447Z,20.00
2022-10-26T21:39:58.855Z,21.60
2022-10-26T21:42:25.270Z,20.00
2022-10-26T21:44:51.759Z,22.50
2022-10-26T21:47:18.223Z,21.60
2022-10-26T21:49:44.727Z,23.40
2022-10-26T21:52:11.184Z,25.75
2022-10-26T21:54:37.703Z,28.00
2022-10-26T21:57:04.200Z,30.00
2022-10-26T21:59:30.620Z,26.20
2022-10-26T22:01:57.191Z,25.00
2022-10-26T22:04:23.721Z,22.00
2022-10-26T22:06:50.108Z,28.50
2022-10-26T22:09:16.521Z,29.25
2022-10-26T22:11:43.246Z,26.00
2022-10-26T22:14:09.642Z,25.00
2022-10-26T22:16:36.108Z,29.40
2022-10-26T22:19:04.403Z,23.25
2022-10-26T22:21:33.548Z,27.75
2022-10-26T22:23:59.955Z,28.80
2022-10-26T22:26:26.423Z,25.00
2022-10-26T22:28:54.016Z,27.00
2022-10-26T22:31:22.364Z,23.40
2022-10-26T22:33:52.723Z,21.80
2022-10-26T22:36:19.185Z,29.50
2022-10-26T22:38:45.673Z,30.00
2022-10-26T22:41:12.075Z,25.75
2022-10-26T22:43:38.643Z,21.50
2022-10-26T22:46:06.642Z,27.20
2022-10-26T22:48:33.500Z,25.00
2022-10-26T22:51:04.167Z,21.80
2022-10-26T22:53:30.554Z,28.50
2022-10-26T22:55:56.961Z,22.00
2022-10-26T22:58:23.397Z,25.00
2022-10-26T23:00:49.973Z,29.60
2022-10-26T23:03:16.404Z,27.20
2022-10-26T23:05:46.704Z,22.60
2022-10-26T23:08:13.114Z,22.00
2022-10-26T23:10:39.524Z,23.75
2022-10-26T23:13:05.997Z,24.75
2022-10-26T23:15:32.437Z,26.00
2022-10-26T23:17:58.852Z,22.00
2022-10-26T23:20:25.265Z,22.80
2022-10-26T23:22:52.019Z,25.80
2022-10-26T23:25:18.705Z,22.60
2022-10-26T23:27:45.104Z,27.75
2022-10-26T23:30:11.824Z,24.00
2022-10-26T23:32:38.251Z,22.00
2022-10-26T23:35:04.882Z,26.20
2022-10-26T23:37:31.300Z,23.20
2022-10-26T23:39:57.730Z,27.75
2022-10-26T23:42:24.119Z,20.20
2022-10-26T23:44:50.635Z,22.00
2022-10-26T23:47:17.099Z,21.00
2022-10-26T23:49:43.536Z,22.00
2022-10-26T23:52:09.941Z,22.50
2022-10-26T23:54:36.394Z,21.60
2022-10-26T23:57:02.990Z,23.00
2022-10-26T23:59:29.387Z,23.00
